sensor_id;sensor_type;location;lat;lon;timestamp;pressure;altitude;pressure_sealevel;temperature;humidity
55079;BME280;55187;49.496;6.010;2022-12-19T00:00:48;97999.78;;;-3.68;100.00
55079;BME280;55187;49.496;6.010;2022-12-19T00:03:14;98006.09;;;-3.58;100.00
55079;BME280;55187;49.496;6.010;2022-12-19T00:05:41;98001.13;;;-3.61;100.00
55079;BME280;55187;49.496;6.010;2022-12-19T00:08:14;98013.78;;;-3.56;100.00
55079;BME280;55187;49.496;6.010;2022-12-19T00:10:42;98010.19;;;-3.54;100.00
55079;BME280;55187;49.496;6.010;2022-12-19T00:13:09;98016.66;;;-3.47;100.00
55079;BME280;55187;49.496;6.010;2022-12-19T00:15:35;98008.91;;;-3.47;100.00
55079;BME280;55187;49.496;6.010;2022-12-19T00:18:02;97999.03;;;-3.40;100.00
55079;BME280;55187;49.496;6.010;2022-12-19T00:20:28;97984.81;;;-3.47;100.00
55079;BME280;55187;49.496;6.010;2022-12-19T00:22:54;97972.59;;;-3.45;100.00
55079;BME280;55187;49.496;6.010;2022-12-19T00:25:21;97993.13;;;-3.28;100.00
55079;BME280;55187;49.496;6.010;2022-12-19T00:27:47;97998.78;;;-3.07;100.00
55079;BME280;55187;49.496;6.010;2022-12-19T00:30:14;97992.22;;;-2.98;100.00
55079;BME280;55187;49.496;6.010;2022-12-19T00:32:40;98002.66;;;-3.28;100.00
55079;BME280;55187;49.496;6.010;2022-12-19T00:35:07;98022.06;;;-3.35;100.00
55079;BME280;55187;49.496;6.010;2022-12-19T00:37:34;98008.69;;;-3.13;100.00
55079;BME280;55187;49.496;6.010;2022-12-19T00:40:03;97998.78;;;-3.07;100.00
55079;BME280;55187;49.496;6.010;2022-12-19T00:42:29;97985.03;;;-3.22;100.00
55079;BME280;55187;49.496;6.010;2022-12-19T00:44:56;97974.41;;;-3.17;100.00
55079;BME280;55187;49.496;6.010;2022-12-19T00:48:42;97975.66;;;-2.81;100.00
55079;BME280;55187;49.496;6.010;2022-12-19T00:51:12;97986.13;;;-2.83;100.00
55079;BME280;55187;49.496;6.010;2022-12-19T00:53:42;97982.69;;;-2.83;100.00
55079;BME280;55187;49.496;6.010;2022-12-19T00:56:12;97985.69;;;-2.89;100.00
55079;BME280;55187;49.496;6.010;2022-12-19T00:58:39;97982.69;;;-2.83;100.00
55079;BME280;55187;49.496;6.010;2022-12-19T01:01:11;97993.91;;;-2.83;100.00
55079;BME280;55187;49.496;6.010;2022-12-19T01:03:38;98003.97;;;-2.64;100.00
55079;BME280;55187;49.496;6.010;2022-12-19T01:06:05;98006.84;;;-2.68;100.00
55079;BME280;55187;49.496;6.010;2022-12-19T01:08:31;98011.63;;;-2.77;100.00
55079;BME280;55187;49.496;6.010;2022-12-19T01:10:58;98004.97;;;-2.81;100.00
55079;BME280;55187;49.496;6.010;2022-12-19T01:13:27;98007.75;;;-2.69;100.00
55079;BME280;55187;49.496;6.010;2022-12-19T01:15:55;97999.63;;;-2.78;100.00
55079;BME280;55187;49.496;6.010;2022-12-19T01:18:22;97996.47;;;-2.68;100.00
55079;BME280;55187;49.496;6.010;2022-12-19T01:20:48;97992.31;;;-2.71;100.00
55079;BME280;55187;49.496;6.010;2022-12-19T01:23:15;97998.63;;;-2.75;100.00
55079;BME280;55187;49.496;6.010;2022-12-19T01:25:42;97996.28;;;-2.65;100.00
55079;BME280;55187;49.496;6.010;2022-12-19T01:28:14;97994.34;;;-2.62;100.00
55079;BME280;55187;49.496;6.010;2022-12-19T01:30:40;97989.16;;;-2.62;100.00
55079;BME280;55187;49.496;6.010;2022-12-19T01:33:09;97980.16;;;-2.56;100.00
55079;BME280;55187;49.496;6.010;2022-12-19T01:35:38;97981.38;;;-2.47;100.00
55079;BME280;55187;49.496;6.010;2022-12-19T01:38:04;97984.25;;;-2.52;100.00
55079;BME280;55187;49.496;6.010;2022-12-19T01:40:32;97981.25;;;-2.32;100.00
55079;BME280;55187;49.496;6.010;2022-12-19T01:43:02;97989.97;;;-2.47;100.00
55079;BME280;55187;49.496;6.010;2022-12-19T01:45:33;97983.44;;;-2.25;100.00
55079;BME280;55187;49.496;6.010;2022-12-19T01:48:17;97979.22;;;-2.41;100.00
55079;BME280;55187;49.496;6.010;2022-12-19T01:50:57;97973.78;;;-2.23;100.00
55079;BME280;55187;49.496;6.010;2022-12-19T01:53:28;97978.41;;;-2.41;100.00
55079;BME280;55187;49.496;6.010;2022-12-19T01:55:55;97982.03;;;-2.44;100.00
55079;BME280;55187;49.496;6.010;2022-12-19T01:58:22;97977.03;;;-2.20;100.00
55079;BME280;55187;49.496;6.010;2022-12-19T02:00:49;97970.38;;;-2.24;100.00
55079;BME280;55187;49.496;6.010;2022-12-19T02:03:28;97970.00;;;-2.18;100.00
55079;BME280;55187;49.496;6.010;2022-12-19T02:05:57;97986.88;;;-2.25;100.00
55079;BME280;55187;49.496;6.010;2022-12-19T02:08:25;97983.50;;;-2.13;100.00
55079;BME280;55187;49.496;6.010;2022-12-19T02:10:53;97999.84;;;-2.25;100.00
55079;BME280;55187;49.496;6.010;2022-12-19T02:13:20;97993.34;;;-2.05;100.00
55079;BME280;55187;49.496;6.010;2022-12-19T02:16:01;97992.69;;;-1.94;100.00
55079;BME280;55187;49.496;6.010;2022-12-19T02:18:52;97995.03;;;-2.04;100.00
55079;BME280;55187;49.496;6.010;2022-12-19T02:21:35;97981.25;;;-2.04;100.00
55079;BME280;55187;49.496;6.010;2022-12-19T02:27:24;97966.22;;;-1.99;100.00
55079;BME280;55187;49.496;6.010;2022-12-19T02:30:13;97971.34;;;-2.12;100.00
55079;BME280;55187;49.496;6.010;2022-12-19T02:32:58;97964.13;;;-2.07;100.00
55079;BME280;55187;49.496;6.010;2022-12-19T02:35:45;97968.16;;;-2.03;100.00
55079;BME280;55187;49.496;6.010;2022-12-19T02:38:30;97963.25;;;-1.93;100.00
55079;BME280;55187;49.496;6.010;2022-12-19T02:41:09;97961.84;;;-1.99;100.00
55079;BME280;55187;49.496;6.010;2022-12-19T02:43:46;97961.94;;;-2.00;100.00
55079;BME280;55187;49.496;6.010;2022-12-19T02:46:14;97967.34;;;-2.03;100.00
55079;BME280;55187;49.496;6.010;2022-12-19T02:48:42;97952.28;;;-1.84;100.00
55079;BME280;55187;49.496;6.010;2022-12-19T02:51:09;97958.16;;;-1.95;100.00
55079;BME280;55187;49.496;6.010;2022-12-19T02:53:38;97949.63;;;-1.97;100.00
55079;BME280;55187;49.496;6.010;2022-12-19T02:59:28;97935.25;;;-1.75;100.00
55079;BME280;55187;49.496;6.010;2022-12-19T03:02:12;97946.88;;;-1.68;100.00
55079;BME280;55187;49.496;6.010;2022-12-19T03:04:51;97934.22;;;-1.73;100.00
55079;BME280;55187;49.496;6.010;2022-12-19T03:07:48;97926.97;;;-1.67;100.00
55079;BME280;55187;49.496;6.010;2022-12-19T03:15:50;97918.38;;;-1.55;100.00
55079;BME280;55187;49.496;6.010;2022-12-19T03:18:17;97928.41;;;-1.76;100.00
55079;BME280;55187;49.496;6.010;2022-12-19T03:21:01;97924.88;;;-1.75;100.00
55079;BME280;55187;49.496;6.010;2022-12-19T03:23:30;97924.25;;;-1.66;100.00
55079;BME280;55187;49.496;6.010;2022-12-19T03:26:01;97923.75;;;-1.58;100.00
55079;BME280;55187;49.496;6.010;2022-12-19T03:28:44;97912.44;;;-1.57;100.00
55079;BME280;55187;49.496;6.010;2022-12-19T03:31:15;97903.91;;;-1.34;100.00
55079;BME280;55187;49.496;6.010;2022-12-19T03:33:44;97906.63;;;-1.10;100.00
55079;BME280;55187;49.496;6.010;2022-12-19T03:36:17;97905.97;;;-1.00;100.00
55079;BME280;55187;49.496;6.010;2022-12-19T03:38:46;97899.31;;;-1.04;100.00
55079;BME280;55187;49.496;6.010;2022-12-19T03:41:15;97913.69;;;-1.24;100.00
55079;BME280;55187;49.496;6.010;2022-12-19T03:44:05;97920.34;;;-1.33;100.00
55079;BME280;55187;49.496;6.010;2022-12-19T03:46:34;97922.81;;;-1.32;100.00
55079;BME280;55187;49.496;6.010;2022-12-19T03:49:04;97932.91;;;-1.14;100.00
55079;BME280;55187;49.496;6.010;2022-12-19T03:51:48;97938.50;;;-1.20;100.00
55079;BME280;55187;49.496;6.010;2022-12-19T03:54:22;97934.34;;;-1.23;100.00
55079;BME280;55187;49.496;6.010;2022-12-19T03:57:10;97915.56;;;-1.27;100.00
55079;BME280;55187;49.496;6.010;2022-12-19T03:59:47;97909.53;;;-1.14;100.00
55079;BME280;55187;49.496;6.010;2022-12-19T04:02:15;97911.22;;;-1.26;100.00
55079;BME280;55187;49.496;6.010;2022-12-19T04:04:45;97918.88;;;-1.24;100.00
55079;BME280;55187;49.496;6.010;2022-12-19T04:07:13;97919.28;;;-1.05;100.00
55079;BME280;55187;49.496;6.010;2022-12-19T04:09:42;97908.25;;;-1.09;100.00
55079;BME280;55187;49.496;6.010;2022-12-19T04:12:14;97912.84;;;-1.12;100.00
55079;BME280;55187;49.496;6.010;2022-12-19T04:14:42;97906.56;;;-0.97;100.00
55079;BME280;55187;49.496;6.010;2022-12-19T04:20:14;97900.22;;;-0.80;100.00
55079;BME280;55187;49.496;6.010;2022-12-19T04:22:49;97881.09;;;-0.79;100.00
55079;BME280;55187;49.496;6.010;2022-12-19T04:25:22;97867.75;;;-0.74;100.00
55079;BME280;55187;49.496;6.010;2022-12-19T04:27:53;97869.22;;;-0.70;100.00
55079;BME280;55187;49.496;6.010;2022-12-19T04:30:21;97870.59;;;-0.77;100.00
55079;BME280;55187;49.496;6.010;2022-12-19T04:32:49;97891.97;;;-0.74;100.00
55079;BME280;55187;49.496;6.010;2022-12-19T04:35:15;97906.09;;;-0.65;100.00
55079;BME280;55187;49.496;6.010;2022-12-19T04:37:42;97906.91;;;-0.65;100.00
55079;BME280;55187;49.496;6.010;2022-12-19T04:40:09;97890.56;;;-0.54;100.00
55079;BME280;55187;49.496;6.010;2022-12-19T04:42:35;97872.88;;;-0.73;100.00
55079;BME280;55187;49.496;6.010;2022-12-19T04:45:03;97881.31;;;-0.58;100.00
55079;BME280;55187;49.496;6.010;2022-12-19T04:49:00;97877.63;;;-0.67;100.00
55079;BME280;55187;49.496;6.010;2022-12-19T04:51:26;97873.69;;;-0.72;100.00
55079;BME280;55187;49.496;6.010;2022-12-19T04:53:53;97886.19;;;-0.77;100.00
55079;BME280;55187;49.496;6.010;2022-12-19T04:56:19;97886.19;;;-0.77;100.00
55079;BME280;55187;49.496;6.010;2022-12-19T04:58:46;97877.31;;;-0.62;100.00
55079;BME280;55187;49.496;6.010;2022-12-19T05:01:12;97894.78;;;-0.64;100.00
55079;BME280;55187;49.496;6.010;2022-12-19T05:03:39;97890.97;;;-0.47;100.00
55079;BME280;55187;49.496;6.010;2022-12-19T05:06:12;97874.94;;;-0.41;100.00
55079;BME280;55187;49.496;6.010;2022-12-19T05:08:40;97869.50;;;-0.38;100.00
55079;BME280;55187;49.496;6.010;2022-12-19T05:11:09;97862.22;;;-0.57;100.00
55079;BME280;55187;49.496;6.010;2022-12-19T05:13:36;97867.06;;;-0.52;100.00
55079;BME280;55187;49.496;6.010;2022-12-19T05:16:05;97872.75;;;-0.47;100.00
55079;BME280;55187;49.496;6.010;2022-12-19T05:18:32;97866.28;;;-0.42;100.00
55079;BME280;55187;49.496;6.010;2022-12-19T05:20:59;97869.00;;;-0.43;100.00
55079;BME280;55187;49.496;6.010;2022-12-19T05:23:25;97880.72;;;-0.37;100.00
55079;BME280;55187;49.496;6.010;2022-12-19T05:25:52;97878.78;;;-0.23;100.00
55079;BME280;55187;49.496;6.010;2022-12-19T05:28:18;97888.47;;;0.11;100.00
55079;BME280;55187;49.496;6.010;2022-12-19T05:30:45;97895.19;;;0.02;100.00
55079;BME280;55187;49.496;6.010;2022-12-19T05:33:11;97874.91;;;0.18;100.00
55079;BME280;55187;49.496;6.010;2022-12-19T05:35:38;97893.94;;;0.19;100.00
55079;BME280;55187;49.496;6.010;2022-12-19T05:38:05;97882.84;;;0.28;100.00
55079;BME280;55187;49.496;6.010;2022-12-19T05:40:32;97883.94;;;0.37;100.00
55079;BME280;55187;49.496;6.010;2022-12-19T05:42:58;97892.22;;;0.42;100.00
55079;BME280;55187;49.496;6.010;2022-12-19T05:45:25;97884.53;;;0.52;100.00
55079;BME280;55187;49.496;6.010;2022-12-19T05:49:16;97881.69;;;0.32;100.00
55079;BME280;55187;49.496;6.010;2022-12-19T05:51:43;97890.06;;;0.36;100.00
55079;BME280;55187;49.496;6.010;2022-12-19T05:54:09;97890.47;;;0.65;100.00
55079;BME280;55187;49.496;6.010;2022-12-19T05:56:35;97908.72;;;0.65;100.00
55079;BME280;55187;49.496;6.010;2022-12-19T05:59:02;97901.75;;;0.88;100.00
55079;BME280;55187;49.496;6.010;2022-12-19T06:01:28;97905.53;;;1.18;100.00
55079;BME280;55187;49.496;6.010;2022-12-19T06:03:55;97908.59;;;1.00;100.00
55079;BME280;55187;49.496;6.010;2022-12-19T06:06:23;97900.31;;;0.95;100.00
55079;BME280;55187;49.496;6.010;2022-12-19T06:08:55;97900.41;;;0.82;100.00
55079;BME280;55187;49.496;6.010;2022-12-19T06:11:21;97906.34;;;0.73;100.00
55079;BME280;55187;49.496;6.010;2022-12-19T06:13:48;97904.81;;;0.82;100.00
55079;BME280;55187;49.496;6.010;2022-12-19T06:16:17;97906.81;;;0.67;100.00
55079;BME280;55187;49.496;6.010;2022-12-19T06:18:45;97916.41;;;0.55;100.00
55079;BME280;55187;49.496;6.010;2022-12-19T06:21:14;97920.91;;;0.76;100.00
55079;BME280;55187;49.496;6.010;2022-12-19T06:23:43;97920.56;;;0.69;100.00
55079;BME280;55187;49.496;6.010;2022-12-19T06:26:12;97919.50;;;0.72;100.00
55079;BME280;55187;49.496;6.010;2022-12-19T06:28:39;97930.47;;;0.64;100.00
55079;BME280;55187;49.496;6.010;2022-12-19T06:31:06;97929.66;;;0.63;100.00
55079;BME280;55187;49.496;6.010;2022-12-19T06:33:33;97924.09;;;0.68;100.00
55079;BME280;55187;49.496;6.010;2022-12-19T06:36:04;97935.69;;;0.75;100.00
55079;BME280;55187;49.496;6.010;2022-12-19T06:38:33;97931.31;;;0.76;100.00
55079;BME280;55187;49.496;6.010;2022-12-19T06:40:59;97928.25;;;0.82;100.00
55079;BME280;55187;49.496;6.010;2022-12-19T06:43:40;97923.16;;;0.69;100.00
55079;BME280;55187;49.496;6.010;2022-12-19T06:46:06;97926.47;;;0.60;100.00
55079;BME280;55187;49.496;6.010;2022-12-19T06:48:33;97928.47;;;0.68;100.00
55079;BME280;55187;49.496;6.010;2022-12-19T06:51:00;97936.16;;;0.58;100.00
55079;BME280;55187;49.496;6.010;2022-12-19T06:53:27;97928.00;;;0.85;100.00
55079;BME280;55187;49.496;6.010;2022-12-19T06:55:56;97926.84;;;1.12;100.00
55079;BME280;55187;49.496;6.010;2022-12-19T06:58:23;97922.22;;;1.04;100.00
55079;BME280;55187;49.496;6.010;2022-12-19T07:00:50;97928.72;;;1.21;100.00
55079;BME280;55187;49.496;6.010;2022-12-19T07:03:21;97912.84;;;1.24;100.00
55079;BME280;55187;49.496;6.010;2022-12-19T07:05:48;97899.34;;;1.08;100.00
55079;BME280;55187;49.496;6.010;2022-12-19T07:08:15;97897.94;;;1.03;100.00
55079;BME280;55187;49.496;6.010;2022-12-19T07:10:41;97900.88;;;1.21;100.00
55079;BME280;55187;49.496;6.010;2022-12-19T07:13:07;97895.69;;;1.10;100.00
55079;BME280;55187;49.496;6.010;2022-12-19T07:15:35;97907.53;;;1.03;100.00
55079;BME280;55187;49.496;6.010;2022-12-19T07:18:03;97915.34;;;1.25;100.00
55079;BME280;55187;49.496;6.010;2022-12-19T07:20:32;97919.72;;;1.25;100.00
55079;BME280;55187;49.496;6.010;2022-12-19T07:23:00;97935.00;;;1.30;100.00
55079;BME280;55187;49.496;6.010;2022-12-19T07:25:27;97925.16;;;1.22;100.00
55079;BME280;55187;49.496;6.010;2022-12-19T07:27:54;97926.34;;;1.40;100.00
55079;BME280;55187;49.496;6.010;2022-12-19T07:30:20;97930.97;;;1.48;100.00
55079;BME280;55187;49.496;6.010;2022-12-19T07:32:47;97930.84;;;1.50;100.00
55079;BME280;55187;49.496;6.010;2022-12-19T07:35:14;97926.22;;;1.42;100.00
55079;BME280;55187;49.496;6.010;2022-12-19T07:37:41;97924.91;;;1.59;100.00
55079;BME280;55187;49.496;6.010;2022-12-19T07:40:08;97911.03;;;1.47;100.00
55079;BME280;55187;49.496;6.010;2022-12-19T07:42:35;97920.06;;;1.32;100.00
55079;BME280;55187;49.496;6.010;2022-12-19T07:45:02;97916.97;;;1.38;100.00
55079;BME280;55187;49.496;6.010;2022-12-19T07:47:28;97902.41;;;1.35;100.00
55079;BME280;55187;49.496;6.010;2022-12-19T07:49:54;97919.94;;;1.33;100.00
55079;BME280;55187;49.496;6.010;2022-12-19T07:52:21;97919.72;;;1.36;100.00
55079;BME280;55187;49.496;6.010;2022-12-19T07:54:47;97912.84;;;1.35;100.00
55079;BME280;55187;49.496;6.010;2022-12-19T07:57:14;97925.03;;;1.35;100.00
55079;BME280;55187;49.496;6.010;2022-12-19T07:59:40;97934.91;;;1.31;100.00
55079;BME280;55187;49.496;6.010;2022-12-19T08:02:06;97926.56;;;1.37;100.00
55079;BME280;55187;49.496;6.010;2022-12-19T08:04:33;97930.50;;;1.43;100.00
55079;BME280;55187;49.496;6.010;2022-12-19T08:06:59;97930.34;;;1.44;100.00
55079;BME280;55187;49.496;6.010;2022-12-19T08:09:27;97925.84;;;1.46;100.00
55079;BME280;55187;49.496;6.010;2022-12-19T08:11:54;97921.81;;;1.42;100.00
55079;BME280;55187;49.496;6.010;2022-12-19T08:14:20;97927.88;;;1.54;100.00
55079;BME280;55187;49.496;6.010;2022-12-19T08:16:46;97922.97;;;1.61;100.00
55079;BME280;55187;49.496;6.010;2022-12-19T08:19:13;97931.50;;;1.63;100.00
55079;BME280;55187;49.496;6.010;2022-12-19T08:21:39;97937.81;;;1.60;100.00
55079;BME280;55187;49.496;6.010;2022-12-19T08:24:06;97925.22;;;1.65;100.00
55079;BME280;55187;49.496;6.010;2022-12-19T08:26:32;97931.03;;;1.69;100.00
55079;BME280;55187;49.496;6.010;2022-12-19T08:28:59;97926.53;;;1.71;100.00
55079;BME280;55187;49.496;6.010;2022-12-19T08:31:26;97915.38;;;1.69;100.00
55079;BME280;55187;49.496;6.010;2022-12-19T08:33:54;97919.16;;;1.65;100.00
55079;BME280;55187;49.496;6.010;2022-12-19T08:36:22;97909.56;;;1.65;100.00
55079;BME280;55187;49.496;6.010;2022-12-19T08:38:49;97906.81;;;1.78;100.00
55079;BME280;55187;49.496;6.010;2022-12-19T08:41:16;97905.31;;;1.97;100.00
55079;BME280;55187;49.496;6.010;2022-12-19T08:43:48;97916.34;;;2.00;100.00
55079;BME280;55187;49.496;6.010;2022-12-19T08:46:15;97919.63;;;2.02;100.00
55079;BME280;55187;49.496;6.010;2022-12-19T08:48:43;97903.16;;;2.02;100.00
55079;BME280;55187;49.496;6.010;2022-12-19T08:51:11;97897.16;;;1.90;100.00
55079;BME280;55187;49.496;6.010;2022-12-19T08:53:40;97903.44;;;1.87;100.00
55079;BME280;55187;49.496;6.010;2022-12-19T08:56:10;97899.88;;;1.88;100.00
55079;BME280;55187;49.496;6.010;2022-12-19T08:58:37;97898.81;;;1.91;100.00
55079;BME280;55187;49.496;6.010;2022-12-19T09:01:06;97895.88;;;1.84;100.00
55079;BME280;55187;49.496;6.010;2022-12-19T09:03:34;97898.72;;;1.81;100.00
55079;BME280;55187;49.496;6.010;2022-12-19T09:06:03;97898.81;;;1.91;100.00
55079;BME280;55187;49.496;6.010;2022-12-19T09:08:32;97904.81;;;2.03;100.00
55079;BME280;55187;49.496;6.010;2022-12-19T09:11:04;97906.09;;;2.08;100.00
55079;BME280;55187;49.496;6.010;2022-12-19T09:13:32;97904.44;;;2.07;100.00
55079;BME280;55187;49.496;6.010;2022-12-19T09:16:15;97910.59;;;2.06;100.00
55079;BME280;55187;49.496;6.010;2022-12-19T09:18:43;97910.53;;;1.97;100.00
55079;BME280;55187;49.496;6.010;2022-12-19T09:21:10;97915.50;;;2.00;100.00
55079;BME280;55187;49.496;6.010;2022-12-19T09:23:36;97920.59;;;2.01;100.00
55079;BME280;55187;49.496;6.010;2022-12-19T09:26:07;97912.50;;;2.04;100.00
55079;BME280;55187;49.496;6.010;2022-12-19T09:28:35;97924.69;;;2.15;100.00
55079;BME280;55187;49.496;6.010;2022-12-19T09:31:06;97927.31;;;2.15;100.00
55079;BME280;55187;49.496;6.010;2022-12-19T09:33:34;97926.28;;;2.06;100.00
55079;BME280;55187;49.496;6.010;2022-12-19T09:36:01;97916.28;;;2.12;100.00
55079;BME280;55187;49.496;6.010;2022-12-19T09:38:29;97913.91;;;2.08;100.00
55079;BME280;55187;49.496;6.010;2022-12-19T09:44:19;97898.81;;;2.23;100.00
55079;BME280;55187;49.496;6.010;2022-12-19T09:46:57;97893.44;;;2.46;100.00
55079;BME280;55187;49.496;6.010;2022-12-19T09:49:28;97886.66;;;2.64;100.00
55079;BME280;55187;49.496;6.010;2022-12-19T09:52:03;97886.63;;;2.34;100.00
55079;BME280;55187;49.496;6.010;2022-12-19T09:54:35;97878.66;;;2.35;100.00
55079;BME280;55187;49.496;6.010;2022-12-19T09:57:05;97881.88;;;2.48;100.00
55079;BME280;55187;49.496;6.010;2022-12-19T09:59:41;97876.28;;;2.74;100.00
55079;BME280;55187;49.496;6.010;2022-12-19T10:02:25;97872.47;;;2.88;100.00
55079;BME280;55187;49.496;6.010;2022-12-19T10:05:11;97864.25;;;2.92;100.00
55079;BME280;55187;49.496;6.010;2022-12-19T10:07:39;97866.88;;;3.02;100.00
55079;BME280;55187;49.496;6.010;2022-12-19T10:10:12;97871.34;;;3.21;100.00
55079;BME280;55187;49.496;6.010;2022-12-19T10:13:17;97878.84;;;3.45;100.00
55079;BME280;55187;49.496;6.010;2022-12-19T10:15:53;97866.91;;;4.01;100.00
55079;BME280;55187;49.496;6.010;2022-12-19T10:21:36;97846.22;;;4.08;100.00
55079;BME280;55187;49.496;6.010;2022-12-19T10:24:27;97846.91;;;4.00;100.00
55079;BME280;55187;49.496;6.010;2022-12-19T10:27:10;97848.97;;;4.16;100.00
55079;BME280;55187;49.496;6.010;2022-12-19T10:30:01;97849.69;;;4.55;100.00
55079;BME280;55187;49.496;6.010;2022-12-19T10:35:34;97847.88;;;4.66;100.00
55079;BME280;55187;49.496;6.010;2022-12-19T10:38:23;97835.38;;;4.87;100.00
55079;BME280;55187;49.496;6.010;2022-12-19T10:40:54;97849.41;;;4.68;100.00
55079;BME280;55187;49.496;6.010;2022-12-19T10:43:45;97843.59;;;4.74;100.00
55079;BME280;55187;49.496;6.010;2022-12-19T10:46:22;97836.88;;;4.90;100.00
55079;BME280;55187;49.496;6.010;2022-12-19T10:48:50;97832.88;;;4.95;100.00
55079;BME280;55187;49.496;6.010;2022-12-19T10:51:27;97832.94;;;5.13;100.00
55079;BME280;55187;49.496;6.010;2022-12-19T10:53:56;97830.56;;;5.10;100.00
55079;BME280;55187;49.496;6.010;2022-12-19T10:56:25;97831.38;;;5.20;100.00
55079;BME280;55187;49.496;6.010;2022-12-19T10:58:54;97829.50;;;5.31;100.00
55079;BME280;55187;49.496;6.010;2022-12-19T11:01:28;97835.81;;;5.38;100.00
55079;BME280;55187;49.496;6.010;2022-12-19T11:04:23;97827.03;;;5.29;100.00
55079;BME280;55187;49.496;6.010;2022-12-19T11:07:07;97835.56;;;5.13;100.00
55079;BME280;55187;49.496;6.010;2022-12-19T11:09:41;97817.75;;;5.35;100.00
55079;BME280;55187;49.496;6.010;2022-12-19T11:12:15;97814.91;;;5.46;100.00
55079;BME280;55187;49.496;6.010;2022-12-19T11:14:50;97803.59;;;5.45;100.00
55079;BME280;55187;49.496;6.010;2022-12-19T11:19:55;97810.03;;;5.51;100.00
55079;BME280;55187;49.496;6.010;2022-12-19T11:22:28;97799.97;;;5.64;100.00
55079;BME280;55187;49.496;6.010;2022-12-19T11:24:55;97807.91;;;5.73;100.00
55079;BME280;55187;49.496;6.010;2022-12-19T11:27:35;97808.97;;;5.98;100.00
55079;BME280;55187;49.496;6.010;2022-12-19T11:30:17;97807.47;;;5.95;100.00
55079;BME280;55187;49.496;6.010;2022-12-19T11:32:48;97808.97;;;5.98;100.00
55079;BME280;55187;49.496;6.010;2022-12-19T11:35:23;97810.41;;;6.10;100.00
55079;BME280;55187;49.496;6.010;2022-12-19T11:38:01;97806.78;;;6.11;100.00
55079;BME280;55187;49.496;6.010;2022-12-19T11:40:44;97806.44;;;6.06;100.00
55079;BME280;55187;49.496;6.010;2022-12-19T11:51:44;97811.56;;;6.42;100.00
55079;BME280;55187;49.496;6.010;2022-12-19T11:54:25;97800.41;;;6.40;100.00
55079;BME280;55187;49.496;6.010;2022-12-19T11:56:55;97809.63;;;6.44;100.00
55079;BME280;55187;49.496;6.010;2022-12-19T11:59:33;97816.75;;;6.51;100.00
55079;BME280;55187;49.496;6.010;2022-12-19T12:07:40;97818.09;;;6.56;100.00
55079;BME280;55187;49.496;6.010;2022-12-19T12:10:17;97810.34;;;6.54;100.00
55079;BME280;55187;49.496;6.010;2022-12-19T12:16:00;97804.31;;;6.62;100.00
55079;BME280;55187;49.496;6.010;2022-12-19T12:18:48;97791.50;;;6.67;100.00
55079;BME280;55187;49.496;6.010;2022-12-19T12:21:25;97808.59;;;6.63;100.00
55079;BME280;55187;49.496;6.010;2022-12-19T12:26:53;97802.97;;;6.58;100.00
55079;BME280;55187;49.496;6.010;2022-12-19T12:29:26;97802.84;;;6.33;100.00
55079;BME280;55187;49.496;6.010;2022-12-19T12:32:14;97805.75;;;6.30;100.00
55079;BME280;55187;49.496;6.010;2022-12-19T12:37:41;97811.41;;;6.35;100.00
55079;BME280;55187;49.496;6.010;2022-12-19T12:40:36;97806.22;;;6.25;100.00
55079;BME280;55187;49.496;6.010;2022-12-19T12:46:27;97799.91;;;6.10;100.00
55079;BME280;55187;49.496;6.010;2022-12-19T12:49:03;97795.25;;;6.04;100.00
55079;BME280;55187;49.496;6.010;2022-12-19T12:51:32;97791.13;;;6.01;100.00
55079;BME280;55187;49.496;6.010;2022-12-19T12:54:04;97793.22;;;5.98;100.00
55079;BME280;55187;49.496;6.010;2022-12-19T12:56:34;97796.44;;;5.92;100.00
55079;BME280;55187;49.496;6.010;2022-12-19T12:59:06;97792.78;;;5.84;100.00
55079;BME280;55187;49.496;6.010;2022-12-19T13:01:39;97790.69;;;6.14;100.00
55079;BME280;55187;49.496;6.010;2022-12-19T13:04:17;97792.16;;;6.08;100.00
55079;BME280;55187;49.496;6.010;2022-12-19T13:07:02;97791.88;;;6.38;100.00
55079;BME280;55187;49.496;6.010;2022-12-19T13:09:33;97792.72;;;6.20;100.00
55079;BME280;55187;49.496;6.010;2022-12-19T13:12:19;97793.53;;;6.21;100.00
55079;BME280;55187;49.496;6.010;2022-12-19T13:15:19;97781.75;;;6.25;100.00
55079;BME280;55187;49.496;6.010;2022-12-19T13:18:28;97783.59;;;6.06;100.00
55079;BME280;55187;49.496;6.010;2022-12-19T13:20:49;97783.91;;;6.29;100.00
55079;BME280;55187;49.496;6.010;2022-12-19T13:23:31;97784.69;;;6.22;100.00
55079;BME280;55187;49.496;6.010;2022-12-19T13:25:59;97775.84;;;6.05;100.00
55079;BME280;55187;49.496;6.010;2022-12-19T13:28:38;97779.38;;;6.14;100.00
55079;BME280;55187;49.496;6.010;2022-12-19T13:31:15;97780.50;;;5.93;100.00
55079;BME280;55187;49.496;6.010;2022-12-19T13:36:47;97776.25;;;6.10;100.00
55079;BME280;55187;49.496;6.010;2022-12-19T13:39:28;97784.59;;;5.70;100.00
55079;BME280;55187;49.496;6.010;2022-12-19T13:42:13;97776.03;;;5.85;100.00
55079;BME280;55187;49.496;6.010;2022-12-19T13:44:53;97778.34;;;6.06;100.00
55079;BME280;55187;49.496;6.010;2022-12-19T13:47:21;97772.72;;;5.83;100.00
55079;BME280;55187;49.496;6.010;2022-12-19T13:49:49;97757.78;;;5.84;100.00
55079;BME280;55187;49.496;6.010;2022-12-19T13:52:17;97762.44;;;5.90;100.00
55079;BME280;55187;49.496;6.010;2022-12-19T13:54:49;97759.75;;;5.82;100.00
55079;BME280;55187;49.496;6.010;2022-12-19T13:57:30;97760.38;;;5.76;100.00
55079;BME280;55187;49.496;6.010;2022-12-19T14:00:01;97751.84;;;5.82;100.00
55079;BME280;55187;49.496;6.010;2022-12-19T14:02:40;97745.44;;;5.76;100.00
55079;BME280;55187;49.496;6.010;2022-12-19T14:05:20;97757.06;;;5.56;100.00
55079;BME280;55187;49.496;6.010;2022-12-19T14:07:48;97753.84;;;5.26;100.00
55079;BME280;55187;49.496;6.010;2022-12-19T14:10:23;97751.91;;;5.28;100.00
55079;BME280;55187;49.496;6.010;2022-12-19T14:12:53;97742.06;;;5.12;100.00
55079;BME280;55187;49.496;6.010;2022-12-19T14:15:31;97749.44;;;5.09;100.00
55079;BME280;55187;49.496;6.010;2022-12-19T14:20:36;97754.44;;;5.20;100.00